Time;durP1;ratioP1;P1;durP2;ratioP2;P2;SDS_P1;SDS_P2;PMS_P1;PMS_P2;Temp;Humidity;BMP_temperature;BMP_pressure;BME280_temperature;BME280_humidity;BME280_pressure;Samples;Min_cycle;Max_cycle;Signal;HPM_P1;HPM_P2
2022/06/01 00:00:48;;;;;;;1.85;1.30;;;17.20;99.90;;;;;;7391950;19;20469;-73
2022/06/01 00:03:14;;;;;;;3.35;1.83;;;17.00;99.90;;;;;;7394150;19;20150;-73
2022/06/01 00:05:41;;;;;;;3.28;1.52;;;17.00;99.90;;;;;;7394208;19;20139;-75
2022/06/01 00:08:07;;;;;;;1.70;1.50;;;17.00;99.90;;;;;;7397928;19;20143;-74
2022/06/01 00:10:33;;;;;;;2.22;1.33;;;16.90;99.90;;;;;;7393780;19;20263;-74
2022/06/01 00:12:59;;;;;;;6.50;1.77;;;16.90;99.90;;;;;;7392503;19;20166;-73
2022/06/01 00:15:26;;;;;;;2.63;1.60;;;16.70;99.90;;;;;;7395944;19;20135;-75
2022/06/01 00:17:53;;;;;;;1.70;1.50;;;16.50;99.90;;;;;;7393176;19;20151;-76
2022/06/01 00:20:19;;;;;;;3.20;1.77;;;16.50;99.90;;;;;;7392119;19;20162;-73
2022/06/01 00:22:45;;;;;;;1.92;1.40;;;16.70;99.90;;;;;;7393788;19;20647;-73
2022/06/01 00:25:13;;;;;;;3.08;1.50;;;16.60;99.90;;;;;;7396532;19;20166;-74
2022/06/01 00:27:39;;;;;;;1.90;1.60;;;16.80;99.90;;;;;;7391018;19;20252;-73
2022/06/01 00:30:08;;;;;;;4.30;1.45;;;16.90;99.90;;;;;;7394697;19;20159;-74
2022/06/01 00:32:34;;;;;;;2.25;1.27;;;16.90;99.90;;;;;;7395679;19;20138;-73
2022/06/01 00:35:02;;;;;;;1.83;1.58;;;16.80;99.90;;;;;;7392539;19;20234;-74
2022/06/01 00:37:28;;;;;;;2.63;1.63;;;16.50;99.90;;;;;;7393829;19;20139;-73
2022/06/01 00:39:53;;;;;;;1.92;1.60;;;16.50;99.90;;;;;;7388073;19;20154;-74
2022/06/01 00:42:27;;;;;;;1.63;1.42;;;16.30;99.90;;;;;;7396423;19;20131;-73
2022/06/01 00:44:54;;;;;;;1.50;1.30;;;16.20;99.90;;;;;;7395455;19;20146;-74
2022/06/01 00:47:22;;;;;;;2.92;1.40;;;16.30;99.90;;;;;;7394774;19;20135;-74
2022/06/01 00:49:59;;;;;;;3.28;1.70;;;16.30;99.90;;;;;;7394303;19;20138;-75
2022/06/01 00:52:37;;;;;;;2.55;1.48;;;16.20;99.90;;;;;;7391714;19;20497;-74
2022/06/01 00:55:06;;;;;;;1.85;1.40;;;16.30;99.90;;;;;;7394093;19;20134;-74
2022/06/01 00:57:33;;;;;;;2.00;1.52;;;16.40;99.90;;;;;;7389617;19;20131;-75
2022/06/01 01:00:04;;;;;;;5.05;1.60;;;16.50;99.90;;;;;;7392885;19;20766;-72
2022/06/01 01:02:31;;;;;;;3.05;1.40;;;16.60;99.90;;;;;;7389592;19;20158;-73
2022/06/01 01:04:57;;;;;;;2.17;1.73;;;16.50;99.90;;;;;;7388359;19;20146;-73
2022/06/01 01:07:26;;;;;;;3.35;1.83;;;16.50;99.90;;;;;;7392135;19;20150;-74
2022/06/01 01:09:52;;;;;;;1.90;1.30;;;16.30;99.90;;;;;;7392336;19;20146;-74
2022/06/01 01:12:18;;;;;;;3.35;1.65;;;16.20;99.90;;;;;;7392830;19;20174;-74
2022/06/01 01:14:45;;;;;;;4.88;1.75;;;16.20;99.90;;;;;;7391874;19;20225;-74
2022/06/01 01:17:12;;;;;;;2.17;1.58;;;16.20;99.90;;;;;;7393518;19;20155;-75
2022/06/01 01:19:52;;;;;;;3.10;1.50;;;16.00;99.90;;;;;;7389967;19;20135;-75
2022/06/01 01:22:39;;;;;;;2.33;1.60;;;15.90;99.90;;;;;;7391557;19;20137;-73
2022/06/01 01:25:19;;;;;;;2.45;1.60;;;15.80;99.90;;;;;;7396226;19;20151;-74
2022/06/01 01:27:47;;;;;;;3.40;1.40;;;15.90;99.90;;;;;;7393025;19;20134;-74
2022/06/01 01:30:40;;;;;;;1.75;1.35;;;16.00;99.90;;;;;;7391546;19;20515;-75
2022/06/01 01:33:08;;;;;;;2.25;1.42;;;16.00;99.90;;;;;;7389310;19;20553;-75
2022/06/01 01:35:35;;;;;;;1.63;1.27;;;16.10;99.90;;;;;;7396409;19;20130;-75
2022/06/01 01:38:07;;;;;;;4.22;1.52;;;16.00;99.90;;;;;;7392372;19;20153;-74
2022/06/01 01:40:37;;;;;;;3.08;1.75;;;16.00;99.90;;;;;;7390657;19;20167;-74
2022/06/01 01:43:06;;;;;;;3.45;1.60;;;16.10;99.90;;;;;;7391045;19;20150;-75
2022/06/01 01:45:35;;;;;;;2.03;1.52;;;16.10;99.90;;;;;;7391211;19;20149;-75
2022/06/01 01:48:00;;;;;;;1.73;1.52;;;16.20;99.90;;;;;;7394084;19;20142;-74
2022/06/01 01:50:26;;;;;;;1.83;1.38;;;16.30;99.90;;;;;;7387471;19;20123;-74
2022/06/01 01:52:53;;;;;;;2.28;1.55;;;16.20;99.90;;;;;;7393275;19;20206;-74
2022/06/01 01:55:20;;;;;;;2.85;1.40;;;16.00;99.90;;;;;;7391702;19;20143;-73
2022/06/01 01:58:10;;;;;;;2.00;1.50;;;16.00;99.90;;;;;;7390341;19;20164;-73
2022/06/01 02:00:41;;;;;;;2.22;1.40;;;16.00;99.90;;;;;;7392552;19;20501;-74
2022/06/01 02:03:12;;;;;;;2.15;1.33;;;16.00;99.90;;;;;;7390240;19;20470;-75
2022/06/01 02:06:07;;;;;;;1.50;1.40;;;16.10;99.90;;;;;;7392179;19;20147;-74
2022/06/01 02:08:47;;;;;;;2.58;1.48;;;16.20;99.90;;;;;;7388758;19;20142;-74
2022/06/01 02:14:09;;;;;;;1.77;1.35;;;16.20;99.90;;;;;;7393026;19;20151;-73
2022/06/01 02:16:41;;;;;;;1.67;1.50;;;16.00;99.90;;;;;;7390319;19;20237;-74
2022/06/01 02:19:13;;;;;;;1.85;1.45;;;16.00;99.90;;;;;;7386295;19;20138;-75
2022/06/01 02:21:39;;;;;;;3.55;1.60;;;16.00;99.90;;;;;;7392259;19;20641;-74
2022/06/01 02:24:05;;;;;;;2.30;1.45;;;16.10;99.90;;;;;;7391587;19;20127;-74
2022/06/01 02:26:32;;;;;;;2.75;1.77;;;16.00;99.90;;;;;;7388993;19;20165;-75
2022/06/01 02:29:07;;;;;;;2.05;1.55;;;16.00;99.90;;;;;;7390990;19;20141;-74
2022/06/01 02:31:34;;;;;;;2.90;1.42;;;15.90;99.90;;;;;;7389801;19;20190;-73
2022/06/01 02:34:01;;;;;;;3.72;1.50;;;15.80;99.90;;;;;;7391112;19;20153;-75
2022/06/01 02:36:27;;;;;;;2.05;1.50;;;15.90;99.90;;;;;;7392364;19;20138;-76
2022/06/01 02:38:56;;;;;;;1.30;1.20;;;15.90;99.90;;;;;;7389983;19;20151;-74
2022/06/01 02:44:06;;;;;;;2.75;1.50;;;15.70;99.90;;;;;;7389983;19;20159;-75
2022/06/01 02:46:33;;;;;;;1.52;1.20;;;15.70;99.90;;;;;;7387298;19;20138;-74
2022/06/01 02:49:00;;;;;;;2.22;1.80;;;15.70;99.90;;;;;;7390400;19;20506;-76
2022/06/01 02:51:26;;;;;;;1.58;1.40;;;15.50;99.90;;;;;;7390487;19;20665;-75
2022/06/01 02:53:52;;;;;;;2.00;1.58;;;15.60;99.90;;;;;;7389978;19;20159;-75
2022/06/01 02:56:18;;;;;;;2.08;1.60;;;15.60;99.90;;;;;;7388432;19;20143;-74
2022/06/01 02:58:44;;;;;;;2.30;1.70;;;15.70;99.90;;;;;;7388991;19;20156;-74
2022/06/01 03:01:09;;;;;;;1.95;1.42;;;15.80;99.90;;;;;;7386543;19;20532;-74
2022/06/01 03:03:36;;;;;;;1.45;1.30;;;15.80;99.90;;;;;;7384116;19;20198;-74
2022/06/01 03:06:02;;;;;;;2.17;1.48;;;15.80;99.90;;;;;;7388901;19;20158;-75
2022/06/01 03:08:28;;;;;;;2.03;1.40;;;15.80;99.90;;;;;;7391284;19;20154;-75
2022/06/01 03:10:54;;;;;;;3.67;1.33;;;15.80;99.90;;;;;;7388542;19;20502;-74
2022/06/01 03:13:22;;;;;;;3.22;1.58;;;15.70;99.90;;;;;;7389097;19;20126;-73
2022/06/01 03:15:49;;;;;;;2.15;1.55;;;15.70;99.90;;;;;;7386477;19;20139;-74
2022/06/01 03:18:15;;;;;;;1.95;1.50;;;15.40;99.90;;;;;;7388444;19;20155;-74
2022/06/01 03:20:42;;;;;;;2.40;1.85;;;15.50;99.90;;;;;;7388245;19;20605;-74
2022/06/01 03:23:08;;;;;;;1.75;1.48;;;15.70;99.90;;;;;;7387297;19;20142;-74
2022/06/01 03:25:34;;;;;;;4.35;1.70;;;15.70;99.90;;;;;;7388370;19;20544;-73
2022/06/01 03:28:00;;;;;;;1.70;1.52;;;15.70;99.90;;;;;;7388152;19;20608;-74
2022/06/01 03:30:27;;;;;;;1.50;1.23;;;15.10;99.90;;;;;;7388185;19;20146;-75
2022/06/01 03:32:53;;;;;;;1.60;1.50;;;14.70;99.90;;;;;;7390585;19;20458;-74
2022/06/01 03:35:22;;;;;;;3.20;1.52;;;14.40;99.90;;;;;;7386025;19;20598;-73
2022/06/01 03:37:48;;;;;;;3.83;1.55;;;14.10;99.90;;;;;;7389624;19;20171;-75
2022/06/01 03:40:17;;;;;;;2.28;1.70;;;14.00;99.90;;;;;;7388012;19;20617;-75
2022/06/01 03:42:43;;;;;;;2.45;1.77;;;14.10;99.90;;;;;;7388824;19;20152;-75
2022/06/01 03:47:55;;;;;;;1.73;1.27;;;13.90;99.90;;;;;;7388458;19;20610;-76
2022/06/01 03:50:24;;;;;;;4.10;1.70;;;14.10;99.90;;;;;;7386632;19;20138;-75
2022/06/01 03:52:50;;;;;;;2.10;1.58;;;14.60;99.90;;;;;;7386067;19;20150;-74
2022/06/01 03:55:16;;;;;;;2.10;1.60;;;15.00;99.90;;;;;;7389887;19;20489;-74
2022/06/01 03:57:43;;;;;;;4.18;1.63;;;15.20;99.90;;;;;;7388005;19;20151;-74
2022/06/01 04:00:14;;;;;;;1.80;1.42;;;15.40;99.90;;;;;;7389043;19;20214;-74
2022/06/01 04:02:41;;;;;;;2.30;1.48;;;14.80;99.90;;;;;;7387078;19;20135;-76
2022/06/01 04:05:08;;;;;;;1.55;1.45;;;14.50;99.90;;;;;;7386711;19;20162;-75
2022/06/01 04:07:34;;;;;;;1.98;1.58;;;14.20;99.90;;;;;;7386261;19;20131;-75
2022/06/01 04:10:00;;;;;;;3.28;1.60;;;14.50;99.90;;;;;;7389251;19;20175;-77
2022/06/01 04:12:27;;;;;;;1.58;1.48;;;14.70;99.90;;;;;;7388389;19;20138;-76
2022/06/01 04:14:53;;;;;;;1.60;1.50;;;14.90;99.90;;;;;;7387652;19;20134;-74
2022/06/01 04:17:19;;;;;;;2.75;1.55;;;14.90;99.90;;;;;;7384793;19;20275;-74
2022/06/01 04:19:45;;;;;;;2.45;1.40;;;14.90;99.90;;;;;;7387833;19;20206;-74
2022/06/01 04:22:12;;;;;;;4.93;1.80;;;14.90;99.90;;;;;;7387670;19;20486;-74
2022/06/01 04:24:39;;;;;;;3.22;1.85;;;15.00;99.90;;;;;;7387822;19;20159;-76
2022/06/01 04:27:05;;;;;;;2.33;1.58;;;15.00;99.90;;;;;;7385585;19;20165;-74
2022/06/01 04:29:31;;;;;;;3.83;2.00;;;15.00;99.90;;;;;;7383456;19;20556;-76
2022/06/01 04:32:10;;;;;;;3.35;1.90;;;15.20;99.90;;;;;;7386457;19;20151;-75
2022/06/01 04:34:37;;;;;;;2.58;1.80;;;15.00;99.90;;;;;;7396034;19;20138;-76
2022/06/01 04:37:03;;;;;;;2.33;1.55;;;14.90;99.90;;;;;;7395054;19;20150;-75
2022/06/01 04:39:29;;;;;;;2.92;2.10;;;15.20;99.90;;;;;;7392667;19;20167;-75
2022/06/01 04:41:55;;;;;;;2.97;2.05;;;15.30;99.90;;;;;;7392425;19;20154;-73
2022/06/01 04:44:21;;;;;;;2.72;2.00;;;15.50;99.90;;;;;;7391425;19;20150;-74
2022/06/01 04:46:47;;;;;;;2.00;1.83;;;15.50;99.90;;;;;;7393128;19;20142;-77
2022/06/01 04:49:13;;;;;;;3.40;1.70;;;15.40;99.90;;;;;;7393538;19;20173;-76
2022/06/01 04:51:38;;;;;;;1.83;1.60;;;15.50;99.90;;;;;;7395319;19;20146;-76
2022/06/01 04:54:07;;;;;;;2.75;1.80;;;15.10;99.90;;;;;;7394823;19;20134;-76
2022/06/01 04:56:33;;;;;;;2.53;2.00;;;15.10;99.90;;;;;;7393173;19;20524;-76
2022/06/01 04:58:59;;;;;;;2.78;1.70;;;15.10;99.90;;;;;;7393839;19;20152;-75
2022/06/01 05:01:25;;;;;;;2.38;1.70;;;15.20;99.90;;;;;;7392548;19;20156;-74
2022/06/01 05:03:51;;;;;;;2.65;1.92;;;15.30;99.90;;;;;;7391870;19;20155;-74
2022/06/01 05:06:17;;;;;;;1.70;1.60;;;15.30;99.90;;;;;;7389722;19;20147;-75
2022/06/01 05:08:43;;;;;;;3.38;2.05;;;15.30;99.90;;;;;;7390417;19;20141;-74
2022/06/01 05:11:09;;;;;;;2.95;2.25;;;15.50;99.90;;;;;;7393769;19;20632;-74
2022/06/01 05:13:35;;;;;;;3.40;1.80;;;15.60;99.90;;;;;;7394667;19;20135;-76
2022/06/01 05:16:02;;;;;;;4.68;2.17;;;15.30;99.90;;;;;;7391631;19;20147;-76
2022/06/01 05:18:29;;;;;;;4.85;1.42;;;15.20;99.90;;;;;;7392460;19;20154;-75
2022/06/01 05:20:55;;;;;;;3.60;1.80;;;15.20;99.90;;;;;;7391551;19;20134;-76
2022/06/01 05:23:22;;;;;;;6.88;3.60;;;15.00;99.90;;;;;;7392363;19;20145;-74
2022/06/01 05:25:50;;;;;;;5.50;1.90;;;15.20;99.90;;;;;;7391831;19;20139;-76
2022/06/01 05:28:22;;;;;;;2.97;1.63;;;15.30;99.90;;;;;;7394658;19;20459;-74
2022/06/01 05:30:48;;;;;;;3.42;1.85;;;15.50;99.90;;;;;;7388394;19;20135;-74
2022/06/01 05:33:14;;;;;;;4.10;1.90;;;15.50;99.90;;;;;;7391727;19;20142;-75
2022/06/01 05:35:40;;;;;;;2.85;2.00;;;15.60;99.90;;;;;;7392222;19;20148;-75
2022/06/01 05:38:06;;;;;;;2.38;1.60;;;15.70;99.90;;;;;;7392114;19;20154;-77
2022/06/01 05:40:33;;;;;;;3.83;1.73;;;15.70;99.90;;;;;;7391056;19;20171;-76
2022/06/01 05:42:59;;;;;;;2.97;1.92;;;15.80;99.90;;;;;;7390433;19;20178;-75
2022/06/01 05:45:26;;;;;;;1.90;1.33;;;15.80;99.90;;;;;;7392844;19;20467;-75
2022/06/01 05:47:52;;;;;;;3.90;1.92;;;15.80;99.90;;;;;;7393870;19;20131;-75
2022/06/01 05:50:18;;;;;;;1.90;1.70;;;15.80;99.90;;;;;;7391732;19;20468;-76
2022/06/01 05:52:44;;;;;;;5.15;1.75;;;15.80;99.90;;;;;;7391774;19;20134;-76
2022/06/01 05:55:11;;;;;;;1.88;1.60;;;15.80;99.90;;;;;;7388723;19;20648;-74
2022/06/01 05:57:38;;;;;;;4.70;3.00;;;15.90;99.90;;;;;;7388877;19;20142;-74
2022/06/01 06:00:07;;;;;;;2.92;2.22;;;16.00;99.90;;;;;;7389807;19;20559;-74
2022/06/01 06:02:33;;;;;;;2.83;1.67;;;16.20;99.90;;;;;;7388526;19;20130;-73
2022/06/01 06:04:59;;;;;;;6.50;2.03;;;16.30;99.90;;;;;;7388550;19;20181;-75
2022/06/01 06:07:25;;;;;;;2.63;1.77;;;16.50;99.90;;;;;;7390795;19;20147;-75
2022/06/01 06:09:51;;;;;;;2.00;1.38;;;16.60;99.90;;;;;;7392553;19;20616;-74
2022/06/01 06:12:17;;;;;;;2.50;1.60;;;16.70;99.90;;;;;;7388407;19;20146;-75
2022/06/01 06:14:43;;;;;;;2.78;1.40;;;17.00;99.90;;;;;;7387103;19;20214;-74
2022/06/01 06:17:08;;;;;;;4.80;1.67;;;17.90;99.90;;;;;;7388069;19;20210;-75
2022/06/01 06:19:38;;;;;;;3.10;2.47;;;19.20;99.90;;;;;;7390353;19;20167;-74
2022/06/01 06:22:06;;;;;;;5.80;2.97;;;20.20;99.90;;;;;;7386608;19;20138;-76
2022/06/01 06:24:32;;;;;;;6.00;2.40;;;21.30;99.90;;;;;;7389674;19;20165;-75
2022/06/01 06:26:59;;;;;;;1.70;1.30;;;21.80;99.90;;;;;;7390161;19;20123;-75
2022/06/01 06:29:24;;;;;;;2.53;1.30;;;21.80;99.90;;;;;;7388177;19;20150;-76
2022/06/01 06:31:50;;;;;;;1.73;1.40;;;22.40;99.90;;;;;;7387074;19;20145;-76
2022/06/01 06:34:17;;;;;;;1.95;1.75;;;22.60;99.90;;;;;;7388680;19;20508;-75
2022/06/01 06:36:44;;;;;;;3.53;2.20;;;23.70;99.90;;;;;;7387642;19;20159;-75
2022/06/01 06:39:10;;;;;;;4.03;1.60;;;24.40;99.60;;;;;;7391659;19;20202;-76
2022/06/01 06:41:36;;;;;;;3.72;1.30;;;24.30;99.30;;;;;;7387145;19;20158;-75
2022/06/01 06:44:03;;;;;;;1.77;1.40;;;24.50;98.50;;;;;;7387586;19;20138;-74
2022/06/01 06:46:29;;;;;;;3.85;1.85;;;25.20;97.40;;;;;;7388539;19;20151;-74
2022/06/01 06:48:55;;;;;;;3.53;1.67;;;25.40;96.90;;;;;;7390506;19;20590;-77
2022/06/01 06:51:21;;;;;;;2.45;1.40;;;24.00;97.90;;;;;;7389103;19;20145;-76
2022/06/01 06:53:47;;;;;;;2.47;1.92;;;24.90;97.40;;;;;;7389372;19;20617;-75
2022/06/01 06:56:16;;;;;;;1.55;1.40;;;25.00;96.60;;;;;;7384610;19;20530;-74
2022/06/01 06:58:42;;;;;;;4.60;1.75;;;25.30;96.10;;;;;;7386105;19;20142;-75
2022/06/01 07:01:08;;;;;;;3.17;1.65;;;25.50;95.90;;;;;;7382582;19;20148;-75
2022/06/01 07:03:34;;;;;;;3.80;1.38;;;25.20;95.70;;;;;;7387774;19;20237;-75
2022/06/01 07:06:09;;;;;;;1.70;1.30;;;24.80;96.20;;;;;;7386600;19;20150;-74
2022/06/01 07:08:36;;;;;;;1.58;1.48;;;25.50;95.70;;;;;;7385554;19;20153;-74
2022/06/01 07:11:02;;;;;;;1.17;1.08;;;25.90;94.90;;;;;;7388703;19;20158;-72
2022/06/01 07:13:29;;;;;;;3.58;2.38;;;26.20;94.50;;;;;;7385737;19;20141;-75
2022/06/01 07:16:12;;;;;;;3.58;1.90;;;26.10;94.70;;;;;;7389143;19;20238;-75
2022/06/01 07:18:40;;;;;;;3.38;1.35;;;25.80;94.30;;;;;;7386061;19;20516;-74
2022/06/01 07:21:07;;;;;;;1.52;1.30;;;26.30;93.90;;;;;;7384234;19;20131;-75
2022/06/01 07:23:34;;;;;;;3.13;1.50;;;26.60;93.00;;;;;;7388323;19;20146;-73
2022/06/01 07:26:00;;;;;;;1.58;1.20;;;26.60;92.80;;;;;;7386238;19;20114;-74
2022/06/01 07:28:26;;;;;;;2.60;1.70;;;26.70;92.40;;;;;;7387016;19;20602;-73
2022/06/01 07:30:59;;;;;;;2.03;1.70;;;26.90;92.40;;;;;;7389450;19;20474;-75
2022/06/01 07:33:29;;;;;;;2.72;1.65;;;26.90;92.20;;;;;;7388134;19;20242;-74
2022/06/01 07:35:57;;;;;;;1.45;1.13;;;26.60;91.80;;;;;;7383870;19;20135;-74
2022/06/01 07:43:56;;;;;;;1.10;1.00;;;26.70;90.10;;;;;;7384341;19;20480;-74
2022/06/01 07:46:22;;;;;;;2.88;1.30;;;27.50;89.30;;;;;;7386920;19;20149;-74
2022/06/01 07:48:49;;;;;;;1.52;1.13;;;27.90;88.70;;;;;;7388989;19;20163;-76
2022/06/01 07:51:17;;;;;;;3.85;1.33;;;27.80;88.20;;;;;;7387288;19;20155;-75
2022/06/01 07:53:43;;;;;;;1.13;1.02;;;27.50;88.60;;;;;;7386679;19;20213;-74
2022/06/01 07:56:09;;;;;;;4.18;2.10;;;27.70;87.80;;;;;;7383087;19;20790;-76
2022/06/01 07:58:36;;;;;;;4.78;3.15;;;27.70;88.20;;;;;;7387487;19;20563;-75
2022/06/01 08:01:02;;;;;;;2.63;1.75;;;27.40;88.20;;;;;;7388243;19;20658;-74
2022/06/01 08:03:28;;;;;;;1.55;1.20;;;27.30;87.30;;;;;;7381317;19;20173;-75
2022/06/01 08:05:54;;;;;;;2.47;1.17;;;27.00;88.30;;;;;;7384103;19;20169;-76
2022/06/01 08:08:20;;;;;;;1.67;1.38;;;27.00;87.80;;;;;;7393675;19;20154;-74
2022/06/01 08:10:46;;;;;;;1.98;1.10;;;27.10;87.50;;;;;;7394790;19;20147;-74
2022/06/01 08:13:14;;;;;;;1.58;1.20;;;27.00;88.30;;;;;;7391610;19;20146;-75
2022/06/01 08:15:43;;;;;;;4.40;1.73;;;27.50;86.40;;;;;;7394308;19;20129;-76
2022/06/01 08:18:11;;;;;;;2.85;1.60;;;27.90;83.60;;;;;;7390527;19;20166;-74
2022/06/01 08:20:38;;;;;;;1.58;1.13;;;27.70;83.40;;;;;;7389664;19;20154;-74
2022/06/01 08:23:06;;;;;;;2.55;1.08;;;28.00;83.20;;;;;;7392431;19;20162;-73
2022/06/01 08:25:32;;;;;;;2.28;0.85;;;27.80;79.30;;;;;;7399234;19;20161;-74
2022/06/01 08:27:59;;;;;;;1.67;1.15;;;27.60;76.70;;;;;;7397266;19;20610;-75
2022/06/01 08:30:27;;;;;;;3.92;2.92;;;27.10;76.30;;;;;;7391579;19;20279;-74
2022/06/01 08:32:54;;;;;;;3.92;1.90;;;26.50;72.90;;;;;;7392302;19;20191;-75
2022/06/01 08:35:29;;;;;;;1.80;1.40;;;26.70;74.20;;;;;;7392396;19;20163;-74
2022/06/01 08:37:56;;;;;;;2.88;0.90;;;26.80;73.10;;;;;;7391426;19;20221;-74
2022/06/01 08:40:26;;;;;;;3.22;1.20;;;27.10;74.10;;;;;;7395426;19;20152;-74
2022/06/01 08:42:57;;;;;;;2.70;1.08;;;27.30;74.80;;;;;;7388877;19;20150;-74
2022/06/01 08:45:25;;;;;;;1.77;1.10;;;26.90;74.30;;;;;;7394763;19;20158;-75
2022/06/01 08:47:51;;;;;;;3.22;1.30;;;26.50;76.00;;;;;;7390198;19;20173;-75
2022/06/01 08:50:38;;;;;;;1.83;1.15;;;26.50;76.70;;;;;;7392518;19;20142;-75
2022/06/01 08:53:06;;;;;;;2.88;1.00;;;26.30;76.60;;;;;;7389962;19;20139;-73
2022/06/01 08:55:50;;;;;;;1.17;0.90;;;26.40;78.10;;;;;;7392673;19;20222;-74
2022/06/01 08:58:21;;;;;;;6.13;1.20;;;26.80;77.20;;;;;;7391491;19;20205;-75
2022/06/01 09:01:11;;;;;;;1.23;1.00;;;26.70;76.50;;;;;;7388521;19;20201;-74
2022/06/01 09:03:48;;;;;;;2.65;1.65;;;26.40;77.80;;;;;;7388902;19;20182;-75
2022/06/01 09:06:27;;;;;;;1.70;1.27;;;25.80;77.70;;;;;;7395929;19;20202;-72
2022/06/01 09:09:07;;;;;;;1.42;1.33;;;25.20;79.10;;;;;;7392836;19;20170;-73
2022/06/01 09:11:37;;;;;;;2.00;1.20;;;24.70;82.50;;;;;;7389591;19;20778;-73
2022/06/01 09:14:44;;;;;;;4.05;1.40;;;24.20;85.10;;;;;;7392742;19;20142;-74
2022/06/01 09:17:10;;;;;;;2.72;1.15;;;24.20;84.70;;;;;;7383981;19;20501;-73
2022/06/01 09:22:38;;;;;;;4.28;1.20;;;23.40;84.90;;;;;;7389922;19;20142;-73
2022/06/01 09:25:18;;;;;;;1.80;1.10;;;23.30;86.80;;;;;;7389332;19;20138;-73
2022/06/01 09:27:48;;;;;;;5.03;1.10;;;23.10;86.20;;;;;;7392624;19;20536;-72
2022/06/01 09:30:22;;;;;;;3.17;1.15;;;22.90;86.40;;;;;;7390957;19;20138;-75
2022/06/01 09:33:20;;;;;;;1.30;1.10;;;22.60;86.80;;;;;;7389800;19;20158;-73
2022/06/01 09:36:01;;;;;;;2.58;1.10;;;22.70;87.00;;;;;;7390813;19;20139;-74
2022/06/01 09:38:39;;;;;;;1.23;1.00;;;23.30;86.30;;;;;;7388609;19;20158;-74
2022/06/01 09:41:09;;;;;;;2.22;1.15;;;23.70;85.30;;;;;;7390088;19;20122;-73
2022/06/01 09:43:39;;;;;;;2.13;1.10;;;23.40;85.80;;;;;;7389954;19;20147;-74
2022/06/01 09:46:06;;;;;;;1.70;0.90;;;23.30;85.70;;;;;;7390064;19;20138;-72
2022/06/01 09:48:46;;;;;;;1.75;0.93;;;23.10;86.50;;;;;;7390813;19;20155;-74
2022/06/01 09:51:17;;;;;;;1.95;0.90;;;22.90;86.70;;;;;;7387660;19;20150;-73
2022/06/01 09:53:50;;;;;;;3.72;1.75;;;22.80;88.40;;;;;;7393337;19;20166;-73
2022/06/01 09:56:18;;;;;;;1.83;1.10;;;22.90;87.90;;;;;;7389218;19;20485;-73
2022/06/01 10:07:38;;;;;;;3.13;0.80;;;22.90;85.40;;;;;;7388696;19;20171;-75
2022/06/01 10:10:06;;;;;;;1.65;1.10;;;23.10;84.20;;;;;;7384806;19;20174;-73
2022/06/01 10:12:40;;;;;;;3.13;1.30;;;23.00;83.50;;;;;;7388933;19;20139;-73
2022/06/01 10:15:18;;;;;;;1.40;0.88;;;23.00;82.80;;;;;;7389982;19;20154;-73
2022/06/01 10:17:50;;;;;;;0.80;0.80;;;23.00;81.70;;;;;;7386847;19;20267;-73
2022/06/01 10:20:35;;;;;;;1.60;0.80;;;23.30;81.90;;;;;;7388115;19;20647;-73
2022/06/01 10:23:24;;;;;;;1.75;1.00;;;23.50;79.20;;;;;;7390289;19;20159;-74
2022/06/01 10:25:51;;;;;;;3.95;1.02;;;23.60;77.00;;;;;;7391094;19;20577;-73
2022/06/01 10:28:25;;;;;;;3.05;0.80;;;23.70;77.70;;;;;;7385535;19;20151;-74
2022/06/01 10:30:56;;;;;;;2.65;1.75;;;23.40;76.10;;;;;;7389662;19;20142;-72
2022/06/01 10:33:44;;;;;;;3.15;2.55;;;23.40;78.10;;;;;;7387965;19;20238;-74
2022/06/01 10:36:22;;;;;;;1.98;1.13;;;23.80;78.00;;;;;;7389553;19;20150;-73
2022/06/01 10:39:01;;;;;;;1.60;1.38;;;24.10;74.90;;;;;;7387830;19;20154;-74
2022/06/01 10:41:43;;;;;;;3.08;1.27;;;24.20;74.80;;;;;;7386419;19;20211;-74
2022/06/01 10:44:16;;;;;;;2.28;1.38;;;24.30;73.70;;;;;;7387616;19;20154;-74
2022/06/01 10:46:53;;;;;;;1.38;1.00;;;24.50;70.60;;;;;;7388513;19;20147;-73
2022/06/01 10:49:27;;;;;;;3.15;1.20;;;24.60;69.80;;;;;;7388809;19;20558;-73
2022/06/01 10:52:10;;;;;;;1.50;1.30;;;24.80;69.90;;;;;;7388809;19;20134;-73
2022/06/01 10:55:00;;;;;;;1.77;1.30;;;24.50;71.40;;;;;;7388854;19;20154;-74
2022/06/01 10:57:26;;;;;;;1.38;1.20;;;24.40;72.40;;;;;;7388427;19;20560;-72
2022/06/01 10:59:52;;;;;;;1.58;1.30;;;24.20;72.10;;;;;;7390634;19;20508;-73
2022/06/01 11:02:33;;;;;;;0.70;0.70;;;24.10;72.70;;;;;;7387282;19;20238;-73
2022/06/01 11:05:23;;;;;;;1.13;0.60;;;24.00;71.30;;;;;;7387200;19;21172;-73
2022/06/01 11:07:55;;;;;;;3.10;2.58;;;23.80;71.20;;;;;;7390018;19;20143;-73
2022/06/01 11:10:39;;;;;;;2.83;2.20;;;23.70;71.40;;;;;;7389786;19;20142;-74
2022/06/01 11:13:28;;;;;;;1.45;1.00;;;23.90;71.20;;;;;;7388299;19;20150;-75
2022/06/01 11:16:00;;;;;;;2.63;1.70;;;24.10;71.30;;;;;;7386504;19;20161;-74
2022/06/01 11:18:36;;;;;;;2.22;1.48;;;24.10;69.30;;;;;;7386894;19;20134;-74
2022/06/01 11:21:18;;;;;;;2.42;1.00;;;24.00;70.10;;;;;;7389259;19;20134;-72
2022/06/01 11:24:07;;;;;;;1.38;1.02;;;24.00;69.70;;;;;;7387456;19;20139;-74
2022/06/01 11:26:46;;;;;;;1.95;0.70;;;24.30;70.70;;;;;;7384402;19;20202;-74
2022/06/01 11:29:46;;;;;;;2.95;1.23;;;24.50;69.60;;;;;;7388251;19;20138;-73
2022/06/01 11:32:22;;;;;;;3.30;1.50;;;24.50;70.10;;;;;;7386219;19;20242;-74
2022/06/01 11:35:20;;;;;;;1.20;0.85;;;24.20;71.10;;;;;;7385784;19;20561;-72
2022/06/01 11:38:01;;;;;;;0.70;0.70;;;24.20;69.60;;;;;;7388078;19;20163;-74
2022/06/01 11:40:50;;;;;;;2.15;1.02;;;24.10;69.70;;;;;;7387965;19;20135;-73
2022/06/01 11:43:16;;;;;;;11.27;8.27;;;24.20;69.10;;;;;;7388076;19;20126;-73
2022/06/01 11:46:00;;;;;;;1.77;1.15;;;24.40;69.00;;;;;;7395482;19;20531;-74
2022/06/01 11:48:31;;;;;;;2.67;0.90;;;24.40;68.20;;;;;;7396049;19;20154;-73
2022/06/01 11:51:25;;;;;;;2.33;1.02;;;24.60;68.40;;;;;;7393575;19;20673;-74
2022/06/01 11:53:59;;;;;;;0.88;0.65;;;24.70;68.50;;;;;;7392867;19;20160;-72
2022/06/01 11:56:28;;;;;;;1.20;0.70;;;24.80;68.10;;;;;;7395674;19;20401;-74
2022/06/01 11:59:12;;;;;;;1.20;1.00;;;24.90;68.30;;;;;;7395392;19;20147;-73
2022/06/01 12:01:41;;;;;;;1.50;1.05;;;25.00;68.20;;;;;;7395783;19;20150;-74
2022/06/01 12:04:20;;;;;;;2.38;1.48;;;24.90;67.50;;;;;;7389591;19;20182;-74
2022/06/01 12:07:06;;;;;;;1.20;1.00;;;24.80;67.30;;;;;;7394540;19;20188;-73
2022/06/01 12:09:41;;;;;;;0.80;0.70;;;24.70;67.90;;;;;;7393617;19;20183;-75
2022/06/01 12:12:42;;;;;;;1.10;0.82;;;24.40;68.50;;;;;;7393016;19;20153;-73
2022/06/01 12:15:19;;;;;;;1.33;0.70;;;24.20;68.50;;;;;;7391679;19;20235;-74
2022/06/01 12:18:31;;;;;;;2.05;0.80;;;24.00;69.60;;;;;;7392570;19;20158;-75
2022/06/01 12:21:17;;;;;;;1.35;0.70;;;24.10;70.30;;;;;;7393165;19;20154;-73
2022/06/01 12:30:13;;;;;;;1.13;0.70;;;23.80;70.80;;;;;;7389763;19;20163;-74
2022/06/01 12:33:00;;;;;;;1.15;0.75;;;23.60;70.20;;;;;;7391401;19;20268;-73
2022/06/01 12:35:38;;;;;;;1.38;0.90;;;23.50;72.00;;;;;;7393285;19;20142;-74
2022/06/01 12:38:12;;;;;;;0.90;0.77;;;23.70;71.80;;;;;;7394746;19;20172;-74
2022/06/01 12:40:39;;;;;;;1.75;1.20;;;23.80;72.20;;;;;;7392852;19;20254;-75
2022/06/01 12:43:14;;;;;;;1.90;1.05;;;23.70;72.70;;;;;;7392524;19;20146;-75
2022/06/01 12:45:42;;;;;;;3.35;1.00;;;23.60;73.00;;;;;;7393671;19;20178;-75
2022/06/01 12:48:09;;;;;;;5.15;1.10;;;23.70;73.10;;;;;;7395608;19;20142;-75
2022/06/01 12:50:55;;;;;;;3.28;1.20;;;23.70;73.10;;;;;;7393448;19;20569;-75
2022/06/01 12:53:24;;;;;;;2.05;1.40;;;23.80;73.30;;;;;;7387773;19;20642;-75
2022/06/01 12:56:05;;;;;;;1.13;0.93;;;23.80;72.30;;;;;;7391068;19;20135;-74
2022/06/01 12:58:33;;;;;;;2.10;1.05;;;23.90;72.60;;;;;;7393438;19;20138;-74
2022/06/01 13:00:59;;;;;;;1.40;0.90;;;23.80;73.60;;;;;;7391255;19;20127;-74
2022/06/01 13:03:29;;;;;;;1.40;0.80;;;23.70;73.40;;;;;;7390956;19;20483;-72
2022/06/01 13:05:59;;;;;;;1.10;0.90;;;23.70;73.70;;;;;;7391577;19;20513;-73
2022/06/01 13:08:32;;;;;;;3.05;1.00;;;23.60;74.30;;;;;;7392358;19;20161;-74
2022/06/01 13:11:12;;;;;;;1.67;1.08;;;23.80;75.00;;;;;;7393610;19;20126;-74
2022/06/01 13:13:37;;;;;;;3.72;1.80;;;23.80;75.60;;;;;;7390928;19;20139;-74
2022/06/01 13:16:05;;;;;;;1.52;0.90;;;23.70;75.90;;;;;;7388960;19;20157;-74
2022/06/01 13:18:38;;;;;;;1.88;0.80;;;23.80;76.30;;;;;;7392680;19;20202;-75
2022/06/01 13:21:10;;;;;;;2.00;1.05;;;24.00;74.30;;;;;;7391404;19;20134;-74
2022/06/01 13:23:36;;;;;;;1.38;0.93;;;24.20;75.50;;;;;;7386075;19;20142;-73
2022/06/01 13:26:06;;;;;;;0.90;0.80;;;24.20;74.90;;;;;;7393250;19;20139;-74
2022/06/01 13:28:33;;;;;;;1.20;0.93;;;24.10;76.10;;;;;;7393809;19;20171;-74
2022/06/01 13:30:59;;;;;;;2.58;1.17;;;23.80;76.90;;;;;;7391298;19;20544;-74
2022/06/01 13:33:38;;;;;;;1.40;0.93;;;23.80;77.20;;;;;;7389978;19;20139;-74
2022/06/01 13:36:07;;;;;;;0.77;0.77;;;23.70;77.80;;;;;;7391304;19;20221;-74
2022/06/01 13:38:39;;;;;;;2.85;1.42;;;23.50;79.20;;;;;;7391024;19;20206;-74